createdAt,value
2023-02-12T00:00:07.432Z,32.42
2023-02-12T00:01:22.266Z,31.05
2023-02-12T00:02:44.788Z,31.02
2023-02-12T00:03:48.887Z,32.22
2023-02-12T00:05:11.548Z,31.35
2023-02-12T00:06:33.079Z,32.92
2023-02-12T00:07:55.708Z,31.00
2023-02-12T00:09:18.158Z,30.02
2023-02-12T00:10:41.451Z,30.65
2023-02-12T00:12:04.500Z,30.38
2023-02-12T00:13:31.920Z,31.80
2023-02-12T00:14:54.402Z,31.25
2023-02-12T00:16:19.170Z,31.17
2023-02-12T00:17:41.910Z,31.98
2023-02-12T00:19:04.692Z,30.35
2023-02-12T00:20:26.234Z,31.42
2023-02-12T00:21:48.735Z,31.55
2023-02-12T00:23:10.577Z,29.95
2023-02-12T00:24:33.448Z,30.52
2023-02-12T00:25:55.250Z,31.70
2023-02-12T00:27:17.893Z,30.33
2023-02-12T00:28:40.992Z,30.08
2023-02-12T00:30:03.578Z,27.80
2023-02-12T00:34:01.765Z,32.40
2023-02-12T00:35:23.759Z,30.00
2023-02-12T00:36:47.450Z,30.50
2023-02-12T00:38:11.641Z,30.58
2023-02-12T00:39:36.458Z,27.15
2023-02-12T00:40:58.186Z,28.58
2023-02-12T00:42:21.164Z,32.00
2023-02-12T00:43:46.401Z,32.88
2023-02-12T00:45:10.225Z,32.50
2023-02-12T00:46:33.172Z,32.58
2023-02-12T00:47:55.865Z,30.15
2023-02-12T00:49:20.288Z,32.42
2023-02-12T00:50:45.104Z,32.40
2023-02-12T00:52:07.631Z,30.67
2023-02-12T00:53:29.727Z,31.85
2023-02-12T00:54:52.240Z,30.27
2023-02-12T00:56:13.833Z,31.70
2023-02-12T00:57:36.391Z,30.45
2023-02-12T00:59:00.250Z,29.80
2023-02-12T01:00:22.096Z,32.13
2023-02-12T01:04:26.643Z,30.63
2023-02-12T01:05:48.191Z,31.95
2023-02-12T01:07:11.024Z,29.95
2023-02-12T01:08:32.680Z,31.85
2023-02-12T01:09:55.192Z,29.58
2023-02-12T01:11:16.722Z,31.60
2023-02-12T01:12:39.220Z,31.80
2023-02-12T01:14:03.140Z,30.35
2023-02-12T01:15:24.847Z,29.92
2023-02-12T01:16:47.354Z,33.33
2023-02-12T01:18:09.121Z,30.80
2023-02-12T01:19:31.615Z,31.75
2023-02-12T01:20:53.118Z,33.53
2023-02-12T01:22:15.835Z,30.15
2023-02-12T01:23:37.390Z,31.30
2023-02-12T01:25:00.099Z,30.17
2023-02-12T01:26:22.878Z,30.80
2023-02-12T01:27:44.487Z,30.52
2023-02-12T01:29:08.804Z,29.77
2023-02-12T01:30:30.433Z,33.45
2023-02-12T01:31:53.516Z,32.65
2023-02-12T01:33:15.135Z,30.83
2023-02-12T01:34:37.802Z,31.35
2023-02-12T01:35:59.291Z,30.45
2023-02-12T01:37:21.786Z,30.33
2023-02-12T01:38:44.912Z,31.27
2023-02-12T01:40:09.160Z,29.42
2023-02-12T01:41:33.645Z,32.15
2023-02-12T01:42:55.168Z,31.73
2023-02-12T01:44:21.876Z,30.40
2023-02-12T01:45:50.161Z,31.23
2023-02-12T01:47:17.517Z,30.27
2023-02-12T01:48:43.689Z,31.90
2023-02-12T01:50:08.020Z,30.85
2023-02-12T01:51:30.920Z,32.20
2023-02-12T01:52:57.649Z,30.23
2023-02-12T01:57:32.156Z,28.15
2023-02-12T01:58:55.556Z,31.63
2023-02-12T02:00:22.743Z,31.38
2023-02-12T02:01:45.451Z,31.95
2023-02-12T02:03:07.449Z,30.80
2023-02-12T02:04:33.670Z,32.13
2023-02-12T02:06:00.609Z,29.55
2023-02-12T02:07:23.240Z,29.60
2023-02-12T02:08:45.888Z,31.65
2023-02-12T02:10:09.170Z,32.33
2023-02-12T02:11:49.120Z,29.45
2023-02-12T02:13:29.660Z,31.15
2023-02-12T02:14:55.618Z,30.80
2023-02-12T02:16:25.360Z,32.40
2023-02-12T02:17:54.376Z,29.33
2023-02-12T02:19:30.727Z,29.75
2023-02-12T02:21:30.450Z,30.20
2023-02-12T02:23:08.189Z,31.38
2023-02-12T02:25:03.536Z,30.15
2023-02-12T02:26:55.514Z,29.98
2023-02-12T02:28:43.589Z,28.05
2023-02-12T02:30:33.371Z,30.98
2023-02-12T02:34:49.624Z,28.27
2023-02-12T02:36:26.071Z,30.52
2023-02-12T02:37:54.816Z,31.88
2023-02-12T02:39:25.646Z,30.58
2023-02-12T02:40:52.921Z,33.08
2023-02-12T02:42:19.631Z,31.25
2023-02-12T02:43:44.298Z,32.60
2023-02-12T02:45:12.312Z,31.85
2023-02-12T02:46:41.573Z,31.10
2023-02-12T02:48:10.015Z,31.85
2023-02-12T02:49:36.478Z,31.60
2023-02-12T02:51:05.482Z,31.30
2023-02-12T02:52:34.963Z,30.60
2023-02-12T02:54:02.791Z,29.30
2023-02-12T02:55:31.570Z,30.73
2023-02-12T02:56:59.419Z,31.25
2023-02-12T02:58:26.654Z,32.20
2023-02-12T02:59:54.611Z,30.75
2023-02-12T03:01:20.008Z,30.13
2023-02-12T03:02:49.652Z,33.67
2023-02-12T03:04:15.147Z,34.15
2023-02-12T03:05:43.017Z,31.75
2023-02-12T03:07:09.744Z,29.65
2023-02-12T03:08:36.113Z,30.40
2023-02-12T03:10:02.906Z,31.80
2023-02-12T03:11:26.771Z,32.75
2023-02-12T03:12:54.865Z,32.55
2023-02-12T03:17:27.355Z,31.83
2023-02-12T03:18:56.695Z,32.83
2023-02-12T03:20:22.704Z,33.95
2023-02-12T03:21:49.964Z,32.15
2023-02-12T03:23:16.562Z,30.75
2023-02-12T03:24:44.151Z,31.85
2023-02-12T03:26:10.832Z,31.48
2023-02-12T03:27:34.838Z,30.25
2023-02-12T03:28:57.632Z,30.65
2023-02-12T03:30:21.888Z,32.28
2023-02-12T03:31:57.761Z,31.90
2023-02-12T03:33:25.591Z,30.83
2023-02-12T03:37:55.198Z,30.83
2023-02-12T03:39:07.073Z,30.20
2023-02-12T03:40:16.009Z,32.60
2023-02-12T03:41:24.765Z,31.77
2023-02-12T03:42:36.852Z,33.90
2023-02-12T03:43:50.118Z,33.75
2023-02-12T03:44:57.054Z,32.45
2023-02-12T03:46:04.211Z,33.50
2023-02-12T03:47:14.461Z,32.05
2023-02-12T03:48:22.778Z,33.05
2023-02-12T03:49:30.175Z,32.17
2023-02-12T03:50:41.978Z,31.92
2023-02-12T03:51:46.253Z,31.00
2023-02-12T03:52:50.808Z,31.25
2023-02-12T03:53:53.555Z,31.67
2023-02-12T03:54:56.726Z,34.80
2023-02-12T03:56:04.376Z,34.67
2023-02-12T03:57:09.639Z,32.45
2023-02-12T03:58:19.315Z,32.35
2023-02-12T03:59:22.583Z,31.80
2023-02-12T04:00:26.460Z,33.05
2023-02-12T04:01:28.734Z,33.65
2023-02-12T04:02:31.999Z,34.22
2023-02-12T04:03:34.535Z,33.45
2023-02-12T04:04:37.742Z,35.45
2023-02-12T04:05:50.289Z,34.28
2023-02-12T04:07:02.147Z,33.22
2023-02-12T04:08:13.326Z,32.00
2023-02-12T04:09:24.346Z,34.75
2023-02-12T04:10:33.404Z,35.22
2023-02-12T04:12:02.525Z,34.90
2023-02-12T04:13:16.230Z,33.30
2023-02-12T04:14:35.594Z,34.03
2023-02-12T04:15:53.737Z,31.77
2023-02-12T04:17:03.040Z,33.90
2023-02-12T04:18:10.817Z,34.83
2023-02-12T04:19:16.705Z,32.85
2023-02-12T04:20:31.737Z,33.53
2023-02-12T04:21:43.740Z,32.53
2023-02-12T04:22:55.145Z,31.42
2023-02-12T04:24:05.706Z,34.75
2023-02-12T04:25:18.400Z,32.83
2023-02-12T04:26:32.887Z,31.30
2023-02-12T04:27:45.165Z,32.75
2023-02-12T04:28:59.738Z,32.33
2023-02-12T04:30:08.367Z,30.67
2023-02-12T04:31:23.731Z,32.47
2023-02-12T04:32:33.963Z,30.50
2023-02-12T04:33:42.941Z,32.17
2023-02-12T04:34:53.420Z,33.10
2023-02-12T04:36:00.778Z,29.98
2023-02-12T04:37:06.735Z,33.53
2023-02-12T04:38:11.531Z,31.63
2023-02-12T04:39:20.102Z,29.58
2023-02-12T04:40:23.049Z,30.88
2023-02-12T04:41:37.013Z,30.35
2023-02-12T04:42:48.068Z,30.45
2023-02-12T04:44:14.634Z,31.45
2023-02-12T04:48:35.434Z,30.92
2023-02-12T04:49:36.974Z,30.83
2023-02-12T04:50:42.449Z,31.33
2023-02-12T04:51:44.627Z,32.10
2023-02-12T04:52:47.895Z,32.10
2023-02-12T04:53:50.523Z,31.15
2023-02-12T04:54:54.176Z,31.27
2023-02-12T04:56:05.142Z,32.15
2023-02-12T04:57:18.947Z,31.98
2023-02-12T04:58:20.517Z,34.60
2023-02-12T04:59:23.017Z,32.25
2023-02-12T05:00:34.613Z,32.45
2023-02-12T05:01:40.548Z,33.22
2023-02-12T05:02:42.319Z,32.05
2023-02-12T05:03:44.845Z,30.52
2023-02-12T05:04:46.424Z,32.10
2023-02-12T05:05:48.966Z,33.40
2023-02-12T05:06:53.543Z,30.75
2023-02-12T05:07:59.043Z,32.75
2023-02-12T05:09:00.656Z,33.08
2023-02-12T05:10:03.275Z,32.65
2023-02-12T05:11:06.232Z,30.98
2023-02-12T05:12:09.844Z,33.25
2023-02-12T05:13:12.685Z,31.70
2023-02-12T05:14:16.612Z,32.15
2023-02-12T05:15:18.223Z,32.05
2023-02-12T05:16:21.898Z,32.05
2023-02-12T05:17:27.111Z,35.67
2023-02-12T05:18:39.593Z,31.08
2023-02-12T05:19:41.598Z,30.65
2023-02-12T05:20:57.948Z,33.05
2023-02-12T05:21:59.601Z,31.88
2023-02-12T05:23:02.089Z,33.33
2023-02-12T05:24:03.944Z,32.50
2023-02-12T05:25:07.397Z,33.00
2023-02-12T05:26:21.096Z,32.85
2023-02-12T05:27:24.307Z,31.42
2023-02-12T05:28:27.650Z,32.72
2023-02-12T05:29:30.143Z,31.58
2023-02-12T05:30:31.697Z,31.67
2023-02-12T05:31:34.701Z,34.70
2023-02-12T05:32:36.476Z,31.20
2023-02-12T05:33:39.026Z,32.88
2023-02-12T05:34:40.645Z,32.63
2023-02-12T05:35:43.173Z,31.10
2023-02-12T05:36:44.787Z,33.67
2023-02-12T05:37:57.308Z,33.92
2023-02-12T05:39:08.865Z,31.40
2023-02-12T05:40:12.498Z,32.13
2023-02-12T05:41:16.386Z,31.55
2023-02-12T05:42:18.901Z,32.60
2023-02-12T05:43:20.403Z,33.60
2023-02-12T05:44:24.255Z,31.80
2023-02-12T05:45:27.871Z,32.03
2023-02-12T05:46:30.579Z,33.22
2023-02-12T05:47:32.194Z,31.33
2023-02-12T05:48:35.818Z,31.42
2023-02-12T05:49:38.293Z,32.17
2023-02-12T05:50:39.793Z,33.35
2023-02-12T05:51:42.869Z,33.75
2023-02-12T05:52:45.147Z,32.47
2023-02-12T05:53:59.981Z,34.08
2023-02-12T05:55:11.588Z,34.75
2023-02-12T05:56:16.300Z,30.83
2023-02-12T05:57:18.140Z,31.90
2023-02-12T05:58:30.634Z,35.72
2023-02-12T05:59:34.076Z,32.10
2023-02-12T06:00:36.690Z,36.17
2023-02-12T06:01:41.015Z,32.33
2023-02-12T06:02:43.546Z,32.28
2023-02-12T06:03:45.405Z,32.40
2023-02-12T06:04:48.726Z,32.28
2023-02-12T06:05:50.823Z,31.27
2023-02-12T06:07:02.398Z,31.15
2023-02-12T06:08:04.445Z,34.75
2023-02-12T06:09:07.555Z,34.30
2023-02-12T06:10:09.665Z,30.83
2023-02-12T06:11:14.399Z,33.03
2023-02-12T06:12:25.954Z,33.88
2023-02-12T06:13:34.343Z,34.25
2023-02-12T06:14:37.246Z,31.95
2023-02-12T06:15:49.772Z,32.25
2023-02-12T06:16:51.774Z,30.52
2023-02-12T06:17:54.364Z,33.17
2023-02-12T06:18:57.211Z,31.65
2023-02-12T06:19:59.759Z,32.10
2023-02-12T06:21:03.151Z,34.30
2023-02-12T06:22:10.580Z,30.88
2023-02-12T06:23:14.703Z,34.08
2023-02-12T06:24:18.247Z,31.42
2023-02-12T06:25:19.818Z,33.35
2023-02-12T06:26:23.594Z,33.15
2023-02-12T06:27:25.199Z,32.92
2023-02-12T06:28:37.840Z,31.73
2023-02-12T06:29:40.872Z,33.33
2023-02-12T06:30:53.602Z,35.00
2023-02-12T06:31:56.560Z,32.33
2023-02-12T06:32:59.282Z,33.53
2023-02-12T06:34:03.268Z,34.20
2023-02-12T06:35:06.467Z,32.28
2023-02-12T06:36:18.763Z,34.10
2023-02-12T06:37:32.540Z,32.00
2023-02-12T06:38:34.893Z,32.85
2023-02-12T06:39:37.408Z,31.40
2023-02-12T06:40:38.945Z,32.72
2023-02-12T06:41:42.010Z,34.08
2023-02-12T06:42:43.533Z,30.85
2023-02-12T06:43:46.039Z,32.78
2023-02-12T06:44:51.918Z,34.05
2023-02-12T06:45:56.141Z,33.15
2023-02-12T06:47:08.892Z,31.85
2023-02-12T06:48:11.164Z,32.20
2023-02-12T06:49:14.485Z,31.73
2023-02-12T06:50:16.922Z,32.55
2023-02-12T06:51:21.710Z,34.70
2023-02-12T06:52:23.299Z,32.05
2023-02-12T06:53:25.807Z,31.75
2023-02-12T06:54:27.325Z,33.80
2023-02-12T06:55:29.825Z,32.13
2023-02-12T06:56:31.506Z,32.85
2023-02-12T06:57:34.087Z,31.08
2023-02-12T06:58:35.654Z,32.00
2023-02-12T06:59:38.163Z,30.65
2023-02-12T07:00:41.707Z,34.13
2023-02-12T07:01:44.934Z,33.08
2023-02-12T07:02:53.871Z,32.40
2023-02-12T07:03:59.779Z,33.55
2023-02-12T07:05:12.505Z,33.83
2023-02-12T07:06:14.203Z,31.77
2023-02-12T07:07:16.744Z,32.42
2023-02-12T07:08:18.355Z,31.70
2023-02-12T07:09:20.868Z,32.63
2023-02-12T07:10:23.408Z,31.30
2023-02-12T07:11:38.520Z,34.22
2023-02-12T07:12:51.223Z,34.42
2023-02-12T07:13:57.789Z,31.60
2023-02-12T07:14:59.474Z,33.95
2023-02-12T07:16:06.792Z,32.70
2023-02-12T07:17:09.913Z,34.50
2023-02-12T07:18:12.565Z,35.35
2023-02-12T07:19:14.099Z,31.48
2023-02-12T07:20:16.830Z,32.53
2023-02-12T07:21:19.318Z,32.53
2023-02-12T07:22:31.852Z,31.83
2023-02-12T07:23:49.160Z,32.10
2023-02-12T07:25:01.764Z,30.40
2023-02-12T07:26:13.705Z,33.70
2023-02-12T07:27:17.258Z,33.63
2023-02-12T07:28:18.858Z,32.90
2023-02-12T07:29:21.412Z,31.17
2023-02-12T07:30:23.237Z,35.20
2023-02-12T07:31:27.217Z,31.95
2023-02-12T07:32:28.853Z,33.70
2023-02-12T07:33:31.344Z,32.15
2023-02-12T07:34:33.165Z,32.40
2023-02-12T07:35:35.761Z,32.40
2023-02-12T07:36:48.269Z,32.45
2023-02-12T07:38:00.754Z,33.42
2023-02-12T07:39:02.808Z,30.35
2023-02-12T07:40:11.548Z,32.03
2023-02-12T07:41:15.074Z,35.33
2023-02-12T07:42:17.868Z,32.70
2023-02-12T07:43:19.408Z,33.40
2023-02-12T07:44:21.918Z,33.03
2023-02-12T07:45:24.329Z,33.63
2023-02-12T07:46:30.569Z,35.88
2023-02-12T07:47:33.153Z,33.25
2023-02-12T07:48:34.746Z,32.50
2023-02-12T07:49:37.336Z,33.05
2023-02-12T07:50:39.969Z,33.95
2023-02-12T07:51:42.200Z,31.70
2023-02-12T07:52:45.492Z,34.20
2023-02-12T07:53:55.668Z,32.58
2023-02-12T07:54:58.413Z,33.85
2023-02-12T07:56:10.655Z,33.80
2023-02-12T07:57:13.141Z,33.25
2023-02-12T07:58:14.918Z,33.60
2023-02-12T07:59:19.672Z,33.03
2023-02-12T08:00:21.813Z,35.10
2023-02-12T08:01:29.676Z,31.92
2023-02-12T08:02:32.214Z,34.28
2023-02-12T08:03:33.870Z,34.35
2023-02-12T08:04:36.838Z,32.28
2023-02-12T08:05:48.370Z,31.27
2023-02-12T08:07:00.922Z,33.33
2023-02-12T08:08:02.526Z,33.83
2023-02-12T08:09:11.756Z,33.58
2023-02-12T08:10:13.277Z,33.22
2023-02-12T08:11:16.614Z,35.03
2023-02-12T08:12:18.659Z,32.50
2023-02-12T08:13:21.339Z,34.55
2023-02-12T08:14:24.528Z,33.47
2023-02-12T08:15:26.132Z,34.20
2023-02-12T08:16:31.686Z,33.60
2023-02-12T08:17:34.492Z,34.10
2023-02-12T08:18:37.348Z,33.70
2023-02-12T08:19:40.433Z,35.08
2023-02-12T08:20:41.966Z,34.25
2023-02-12T08:21:44.908Z,34.13
2023-02-12T08:22:58.108Z,34.13
2023-02-12T08:24:00.208Z,34.90
2023-02-12T08:25:02.749Z,33.33
2023-02-12T08:26:06.304Z,33.72
2023-02-12T08:27:08.875Z,33.45
2023-02-12T08:28:10.515Z,32.33
2023-02-12T08:29:15.921Z,36.70
2023-02-12T08:30:28.413Z,33.00
2023-02-12T08:31:34.672Z,33.28
2023-02-12T08:32:50.085Z,33.47
2023-02-12T08:33:54.486Z,35.40
2023-02-12T08:34:57.345Z,33.58
2023-02-12T08:36:03.948Z,32.78
2023-02-12T08:37:07.714Z,35.05
2023-02-12T08:38:09.315Z,35.28
2023-02-12T08:39:12.122Z,34.67
2023-02-12T08:40:13.837Z,34.45
2023-02-12T08:41:20.604Z,33.28
2023-02-12T08:42:25.589Z,32.25
2023-02-12T08:43:28.353Z,33.33
2023-02-12T08:44:31.280Z,35.38
2023-02-12T08:45:33.694Z,34.33
2023-02-12T08:46:40.030Z,33.72
2023-02-12T08:47:42.770Z,36.03
2023-02-12T08:48:45.263Z,33.33
2023-02-12T08:49:47.865Z,35.70
2023-02-12T08:50:49.466Z,33.67
2023-02-12T08:51:53.889Z,34.45
2023-02-12T08:52:56.397Z,33.05
2023-02-12T08:54:00.508Z,36.42
2023-02-12T08:55:03.052Z,35.35
2023-02-12T08:56:05.548Z,35.78
2023-02-12T08:57:09.793Z,36.72
2023-02-12T08:58:21.353Z,34.97
2023-02-12T08:59:25.796Z,34.13
2023-02-12T09:00:33.879Z,33.83
2023-02-12T09:01:41.916Z,32.95
2023-02-12T09:02:43.631Z,36.38
2023-02-12T09:03:47.145Z,32.03
2023-02-12T09:04:49.739Z,34.95
2023-02-12T09:05:51.483Z,33.30
2023-02-12T09:06:55.161Z,35.42
2023-02-12T09:08:06.819Z,31.00
2023-02-12T09:09:20.595Z,36.20
2023-02-12T09:10:32.150Z,34.40
2023-02-12T09:11:45.150Z,32.85
2023-02-12T09:12:48.318Z,33.55
2023-02-12T09:13:51.650Z,32.40
2023-02-12T09:14:54.372Z,35.22
2023-02-12T09:15:56.254Z,30.75
2023-02-12T09:17:00.310Z,34.13
2023-02-12T09:18:03.955Z,34.55
2023-02-12T09:19:06.840Z,33.13
2023-02-12T09:20:11.974Z,31.63
2023-02-12T09:21:24.770Z,33.60
2023-02-12T09:22:26.409Z,31.92
2023-02-12T09:23:37.406Z,34.08
2023-02-12T09:24:49.976Z,35.67
2023-02-12T09:26:05.560Z,32.60
2023-02-12T09:27:14.403Z,33.08
2023-02-12T09:28:16.034Z,33.90
2023-02-12T09:29:18.527Z,30.83
2023-02-12T09:30:20.175Z,30.95
2023-02-12T09:31:32.527Z,31.25
2023-02-12T09:32:35.558Z,30.52
2023-02-12T09:33:38.097Z,31.25
2023-02-12T09:34:41.492Z,34.47
2023-02-12T09:35:44.320Z,32.10
2023-02-12T09:36:56.788Z,32.00
2023-02-12T09:38:09.950Z,32.20
2023-02-12T09:39:22.504Z,30.25
2023-02-12T09:40:34.871Z,30.60
2023-02-12T09:42:03.984Z,29.13
2023-02-12T09:43:17.875Z,30.83
2023-02-12T09:44:27.936Z,30.70
2023-02-12T09:45:35.789Z,30.20
2023-02-12T09:46:46.327Z,31.15
2023-02-12T09:47:57.783Z,29.42
2023-02-12T09:49:09.808Z,28.23
2023-02-12T09:50:37.267Z,31.02
2023-02-12T09:51:53.855Z,30.77
2023-02-12T09:52:58.956Z,31.48
2023-02-12T09:54:04.758Z,32.97
2023-02-12T09:55:11.907Z,31.92
2023-02-12T09:56:14.922Z,32.78
2023-02-12T09:57:23.874Z,34.22
2023-02-12T09:58:33.763Z,31.88
2023-02-12T09:59:41.312Z,30.52
2023-02-12T10:00:44.582Z,31.90
2023-02-12T10:01:46.205Z,31.48
2023-02-12T10:02:53.163Z,26.67
2023-02-12T10:04:06.200Z,24.45
2023-02-12T10:05:18.708Z,23.88
2023-02-12T10:06:23.709Z,25.35
2023-02-12T10:07:38.830Z,24.65
2023-02-12T10:08:58.628Z,29.33
2023-02-12T10:10:20.675Z,30.23
2023-02-12T10:11:39.618Z,35.63
2023-02-12T10:12:51.110Z,34.10
2023-02-12T10:14:02.828Z,32.90
2023-02-12T10:15:26.637Z,33.55
2023-02-12T10:16:52.272Z,35.88
2023-02-12T10:18:05.642Z,32.42
2023-02-12T10:19:23.814Z,35.58
2023-02-12T10:21:03.093Z,35.03
2023-02-12T10:22:13.666Z,38.00
2023-02-12T10:23:27.451Z,33.80
2023-02-12T10:24:58.601Z,33.70
2023-02-12T10:26:07.658Z,34.80
2023-02-12T10:27:15.351Z,34.28
2023-02-12T10:28:21.455Z,35.97
2023-02-12T10:29:25.885Z,36.30
2023-02-12T10:30:36.664Z,35.92
2023-02-12T10:31:53.506Z,36.28
2023-02-12T10:37:50.493Z,34.55
2023-02-12T10:38:58.892Z,33.33
2023-02-12T10:40:05.795Z,34.72
2023-02-12T10:41:07.802Z,38.72
2023-02-12T10:42:13.852Z,38.90
2023-02-12T10:43:15.797Z,37.08
2023-02-12T10:44:18.726Z,35.55
2023-02-12T10:45:23.919Z,35.03
2023-02-12T10:46:36.472Z,38.28
2023-02-12T10:47:47.321Z,34.15
2023-02-12T10:48:54.835Z,34.35
2023-02-12T10:49:58.540Z,36.63
2023-02-12T10:51:18.171Z,36.13
2023-02-12T10:52:35.010Z,35.15
2023-02-12T10:53:41.241Z,34.00
2023-02-12T10:54:44.482Z,33.65
2023-02-12T10:55:47.077Z,34.95
2023-02-12T10:56:49.291Z,37.55
2023-02-12T10:57:52.012Z,34.67
2023-02-12T10:58:59.225Z,36.58
2023-02-12T11:00:22.716Z,34.63
2023-02-12T11:01:39.347Z,34.33
2023-02-12T11:03:01.209Z,34.92
2023-02-12T11:04:21.461Z,35.33
2023-02-12T11:05:26.681Z,35.30
2023-02-12T11:06:31.769Z,34.60
2023-02-12T11:07:48.879Z,33.75
2023-02-12T11:08:52.579Z,34.97
2023-02-12T11:09:57.226Z,35.22
2023-02-12T11:11:12.906Z,35.50
2023-02-12T11:12:20.345Z,34.88
2023-02-12T11:13:26.017Z,34.08
2023-02-12T11:14:38.410Z,34.83
2023-02-12T11:15:51.306Z,36.30
2023-02-12T11:17:03.975Z,37.53
2023-02-12T11:18:08.671Z,35.95
2023-02-12T11:19:25.303Z,36.67
2023-02-12T11:20:30.379Z,36.80
2023-02-12T11:21:32.921Z,37.08
2023-02-12T11:22:35.509Z,34.85
2023-02-12T11:23:39.775Z,35.90
2023-02-12T11:24:42.660Z,34.80
2023-02-12T11:25:58.872Z,34.08
2023-02-12T11:27:14.482Z,32.90
2023-02-12T11:28:19.173Z,35.75
2023-02-12T11:29:24.544Z,33.47
2023-02-12T11:30:27.696Z,32.08
2023-02-12T11:31:36.816Z,36.03
2023-02-12T11:32:49.354Z,34.25
2023-02-12T11:34:10.547Z,32.92
2023-02-12T11:38:25.606Z,31.30
2023-02-12T11:39:32.246Z,31.08
2023-02-12T11:40:36.138Z,31.50
2023-02-12T11:41:41.505Z,32.95
2023-02-12T11:42:49.125Z,35.95
2023-02-12T11:43:53.002Z,33.33
2023-02-12T11:44:57.207Z,36.22
2023-02-12T11:46:01.622Z,34.40
2023-02-12T11:47:22.062Z,34.22
2023-02-12T11:48:27.081Z,33.63
2023-02-12T11:49:32.771Z,32.60
2023-02-12T11:50:35.315Z,35.25
2023-02-12T11:51:38.765Z,38.22
2023-02-12T11:52:52.257Z,33.47
2023-02-12T11:53:57.606Z,35.10
2023-02-12T11:55:02.668Z,34.25
2023-02-12T11:56:09.449Z,32.88
2023-02-12T11:57:36.401Z,34.67
2023-02-12T11:58:39.575Z,34.97
2023-02-12T11:59:49.020Z,35.78
2023-02-12T12:00:57.560Z,31.23
2023-02-12T12:02:05.442Z,33.03
2023-02-12T12:03:13.780Z,32.90
2023-02-12T12:04:21.669Z,32.30
2023-02-12T12:05:38.112Z,33.65
2023-02-12T12:06:54.436Z,34.45
2023-02-12T12:07:59.795Z,34.55
2023-02-12T12:09:08.117Z,31.05
2023-02-12T12:10:17.319Z,33.00
2023-02-12T12:11:26.294Z,32.45
2023-02-12T12:12:39.684Z,29.88
2023-02-12T12:13:49.229Z,29.77
2023-02-12T12:15:13.770Z,28.05
2023-02-12T12:16:42.642Z,27.55
2023-02-12T12:18:09.062Z,28.45
2023-02-12T12:19:34.401Z,28.70
2023-02-12T12:20:42.170Z,27.10
2023-02-12T12:21:52.890Z,26.15
2023-02-12T12:23:00.743Z,27.17
2023-02-12T12:24:10.082Z,26.90
2023-02-12T12:25:23.666Z,26.92
2023-02-12T12:26:29.852Z,29.38
2023-02-12T12:27:57.426Z,29.70
2023-02-12T12:29:06.530Z,27.17
2023-02-12T12:30:25.437Z,26.48
2023-02-12T12:31:34.138Z,28.13
2023-02-12T12:32:40.988Z,26.33
2023-02-12T12:33:57.532Z,25.35
2023-02-12T12:34:59.272Z,24.98
2023-02-12T12:36:24.330Z,26.63
2023-02-12T12:37:37.761Z,27.48
2023-02-12T12:38:58.220Z,25.80
2023-02-12T12:40:17.227Z,26.02
2023-02-12T12:41:27.807Z,25.98
2023-02-12T12:42:56.690Z,24.67
2023-02-12T12:44:16.316Z,25.70
2023-02-12T12:45:36.747Z,23.77
2023-02-12T12:46:58.425Z,25.48
2023-02-12T12:48:18.798Z,23.52
2023-02-12T12:49:35.406Z,24.85
2023-02-12T12:51:02.315Z,25.90
2023-02-12T12:52:27.894Z,24.95
2023-02-12T12:53:47.670Z,23.25
2023-02-12T12:55:03.460Z,24.98
2023-02-12T12:56:23.287Z,25.73
2023-02-12T12:57:44.183Z,22.65
2023-02-12T12:59:24.046Z,23.45
2023-02-12T13:00:38.197Z,22.70
2023-02-12T13:02:02.893Z,24.10
2023-02-12T13:03:41.442Z,23.30
2023-02-12T13:05:19.002Z,23.40
2023-02-12T13:06:42.324Z,23.20
2023-02-12T13:07:54.718Z,24.20
2023-02-12T13:09:12.224Z,23.98
2023-02-12T13:10:25.078Z,23.77
2023-02-12T13:11:40.767Z,23.67
2023-02-12T13:12:57.316Z,22.08
2023-02-12T13:14:09.892Z,23.25
2023-02-12T13:15:22.621Z,23.63
2023-02-12T13:16:31.210Z,23.85
2023-02-12T13:17:41.273Z,24.85
2023-02-12T13:18:56.882Z,24.65
2023-02-12T13:20:06.563Z,25.67
2023-02-12T13:21:17.018Z,24.23
2023-02-12T13:22:26.434Z,24.55
2023-02-12T13:23:40.277Z,23.20
2023-02-12T13:24:48.934Z,23.27
2023-02-12T13:26:02.582Z,24.35
2023-02-12T13:27:09.363Z,23.73
2023-02-12T13:28:20.045Z,23.70
2023-02-12T13:29:28.755Z,24.58
2023-02-12T13:30:39.291Z,23.33
2023-02-12T13:31:49.037Z,23.25
2023-02-12T13:33:02.848Z,23.50
2023-02-12T13:34:13.375Z,25.70
2023-02-12T13:35:18.576Z,25.40
2023-02-12T13:36:21.207Z,23.17
2023-02-12T13:37:32.926Z,23.27
2023-02-12T13:38:40.289Z,25.50
2023-02-12T13:39:47.978Z,23.27
2023-02-12T13:40:51.639Z,25.10
2023-02-12T13:42:04.268Z,23.70
2023-02-12T13:43:14.691Z,24.42
2023-02-12T13:44:28.758Z,23.85
2023-02-12T13:45:41.731Z,23.92
2023-02-12T13:46:53.366Z,22.38
2023-02-12T13:52:46.772Z,23.42
2023-02-12T13:54:03.501Z,23.80
2023-02-12T13:55:22.345Z,22.70
2023-02-12T13:56:33.887Z,24.08
2023-02-12T13:57:36.419Z,23.45
2023-02-12T13:58:51.053Z,24.25
2023-02-12T13:59:58.015Z,25.00
2023-02-12T14:01:01.266Z,25.83
2023-02-12T14:02:05.628Z,23.10
2023-02-12T14:03:10.072Z,24.25
2023-02-12T14:04:22.016Z,24.88
2023-02-12T14:05:29.579Z,24.23
2023-02-12T14:06:34.854Z,23.30
2023-02-12T14:07:46.424Z,25.08
2023-02-12T14:08:52.387Z,24.05
2023-02-12T14:10:06.585Z,25.23
2023-02-12T14:11:10.594Z,23.73
2023-02-12T14:12:16.456Z,23.20
2023-02-12T14:13:23.085Z,22.95
2023-02-12T14:14:27.695Z,25.27
2023-02-12T14:15:37.430Z,23.08
2023-02-12T14:16:40.911Z,23.20
2023-02-12T14:17:55.963Z,23.85
2023-02-12T14:19:37.425Z,24.83
2023-02-12T14:20:40.067Z,22.45
2023-02-12T14:21:45.563Z,24.00
2023-02-12T14:23:19.103Z,24.27
2023-02-12T14:24:53.008Z,21.88
2023-02-12T14:28:24.016Z,22.13
2023-02-12T14:29:27.366Z,21.63
2023-02-12T14:30:39.903Z,22.95
2023-02-12T14:31:43.149Z,21.98
2023-02-12T14:33:09.175Z,24.27
2023-02-12T14:34:48.225Z,21.67
2023-02-12T14:36:16.906Z,22.20
2023-02-12T14:37:38.955Z,21.58
2023-02-12T14:39:04.557Z,20.63
2023-02-12T14:40:40.387Z,23.15
2023-02-12T14:41:44.081Z,20.67
2023-02-12T14:42:55.762Z,21.58
2023-02-12T14:44:43.272Z,23.13
2023-02-12T14:45:45.840Z,21.13
2023-02-12T14:46:49.130Z,22.23
2023-02-12T14:47:53.234Z,21.60
2023-02-12T14:48:58.394Z,22.52
2023-02-12T14:50:02.683Z,21.85
2023-02-12T14:51:06.828Z,21.60
2023-02-12T14:52:16.831Z,21.23
2023-02-12T14:53:27.416Z,21.48
2023-02-12T14:54:35.390Z,20.13
2023-02-12T14:55:40.058Z,19.63
2023-02-12T14:56:48.232Z,19.65
2023-02-12T14:57:50.967Z,21.75
2023-02-12T14:58:57.953Z,21.08
2023-02-12T15:00:04.098Z,21.30
2023-02-12T15:01:08.509Z,20.20
2023-02-12T15:02:19.331Z,21.38
2023-02-12T15:03:28.387Z,20.33
2023-02-12T15:04:34.394Z,22.02
2023-02-12T15:05:41.105Z,21.15
2023-02-12T15:06:50.622Z,21.90
2023-02-12T15:07:56.128Z,20.33
2023-02-12T15:09:03.932Z,21.10
2023-02-12T15:10:12.859Z,19.77
2023-02-12T15:11:29.397Z,20.55
2023-02-12T15:12:36.582Z,20.35
2023-02-12T15:13:48.951Z,21.42
2023-02-12T15:14:59.085Z,19.80
2023-02-12T15:16:22.322Z,18.30
2023-02-12T15:17:30.538Z,20.42
2023-02-12T15:18:46.593Z,21.10
2023-02-12T15:19:55.794Z,19.23
2023-02-12T15:21:02.534Z,19.58
2023-02-12T15:22:05.152Z,19.35
2023-02-12T15:23:37.855Z,21.75
2023-02-12T15:24:40.386Z,22.48
2023-02-12T15:25:42.962Z,20.45
2023-02-12T15:29:23.094Z,20.17
2023-02-12T15:30:28.901Z,19.00
2023-02-12T15:31:33.253Z,19.63
2023-02-12T15:32:39.293Z,18.55
2023-02-12T15:33:47.285Z,20.33
2023-02-12T15:34:51.802Z,20.80
2023-02-12T15:35:53.976Z,19.65
2023-02-12T15:36:59.397Z,20.92
2023-02-12T15:38:01.859Z,21.75
2023-02-12T15:39:09.231Z,19.90
2023-02-12T15:40:16.458Z,21.15
2023-02-12T15:41:29.210Z,20.48
2023-02-12T15:42:33.894Z,19.92
2023-02-12T15:43:40.408Z,20.90
2023-02-12T15:44:44.481Z,19.67
2023-02-12T15:45:52.975Z,19.50
2023-02-12T15:46:57.339Z,20.83
2023-02-12T15:48:13.219Z,18.88
2023-02-12T15:49:22.171Z,20.23
2023-02-12T15:50:24.353Z,19.55
2023-02-12T15:51:34.709Z,19.77
2023-02-12T15:52:40.388Z,21.15
2023-02-12T15:53:44.176Z,20.70
2023-02-12T15:54:49.456Z,20.20
2023-02-12T15:55:51.991Z,21.75
2023-02-12T15:56:55.252Z,18.67
2023-02-12T15:58:00.248Z,18.50
2023-02-12T15:59:04.358Z,20.15
2023-02-12T16:00:11.944Z,20.95